sensor_id;sensor_type;location;lat;lon;timestamp;temperature;humidity
21115;DHT22;10715;48.546;9.896;2023-06-14T00:01:49;9.90;95.00
21115;DHT22;10715;48.546;9.896;2023-06-14T00:04:15;9.90;95.00
21115;DHT22;10715;48.546;9.896;2023-06-14T00:06:42;9.90;95.10
21115;DHT22;10715;48.546;9.896;2023-06-14T00:09:11;9.80;95.20
21115;DHT22;10715;48.546;9.896;2023-06-14T00:11:41;9.80;95.30
21115;DHT22;10715;48.546;9.896;2023-06-14T00:14:07;9.70;95.30
21115;DHT22;10715;48.546;9.896;2023-06-14T00:16:33;9.70;95.40
21115;DHT22;10715;48.546;9.896;2023-06-14T00:19:03;9.60;95.40
21115;DHT22;10715;48.546;9.896;2023-06-14T00:21:30;9.60;95.60
21115;DHT22;10715;48.546;9.896;2023-06-14T00:23:57;9.50;95.80
21115;DHT22;10715;48.546;9.896;2023-06-14T00:26:23;9.50;95.70
21115;DHT22;10715;48.546;9.896;2023-06-14T00:28:49;9.40;95.80
21115;DHT22;10715;48.546;9.896;2023-06-14T00:31:18;9.40;95.90
21115;DHT22;10715;48.546;9.896;2023-06-14T00:33:44;9.30;95.90
21115;DHT22;10715;48.546;9.896;2023-06-14T00:36:09;9.30;96.00
21115;DHT22;10715;48.546;9.896;2023-06-14T00:38:35;9.30;96.10
21115;DHT22;10715;48.546;9.896;2023-06-14T00:41:01;9.20;96.20
21115;DHT22;10715;48.546;9.896;2023-06-14T00:43:26;9.20;96.30
21115;DHT22;10715;48.546;9.896;2023-06-14T00:45:52;9.10;96.70
21115;DHT22;10715;48.546;9.896;2023-06-14T00:48:18;9.10;96.70
21115;DHT22;10715;48.546;9.896;2023-06-14T00:50:45;9.00;96.70
21115;DHT22;10715;48.546;9.896;2023-06-14T00:53:15;9.00;96.70
21115;DHT22;10715;48.546;9.896;2023-06-14T00:55:43;9.00;96.60
21115;DHT22;10715;48.546;9.896;2023-06-14T00:58:09;8.90;96.60
21115;DHT22;10715;48.546;9.896;2023-06-14T01:00:35;8.90;96.80
21115;DHT22;10715;48.546;9.896;2023-06-14T01:03:01;8.90;96.80
21115;DHT22;10715;48.546;9.896;2023-06-14T01:05:28;8.80;96.80
21115;DHT22;10715;48.546;9.896;2023-06-14T01:10:59;8.80;97.10
21115;DHT22;10715;48.546;9.896;2023-06-14T01:13:32;8.70;97.30
21115;DHT22;10715;48.546;9.896;2023-06-14T01:15:59;8.70;97.40
21115;DHT22;10715;48.546;9.896;2023-06-14T01:18:25;8.60;97.20
21115;DHT22;10715;48.546;9.896;2023-06-14T01:20:53;8.60;97.30
21115;DHT22;10715;48.546;9.896;2023-06-14T01:23:22;8.60;97.20
21115;DHT22;10715;48.546;9.896;2023-06-14T01:25:48;8.60;97.30
21115;DHT22;10715;48.546;9.896;2023-06-14T01:28:20;8.60;97.30
21115;DHT22;10715;48.546;9.896;2023-06-14T01:30:48;8.50;97.40
21115;DHT22;10715;48.546;9.896;2023-06-14T01:33:17;8.50;97.60
21115;DHT22;10715;48.546;9.896;2023-06-14T01:35:51;8.50;97.50
21115;DHT22;10715;48.546;9.896;2023-06-14T01:38:22;8.40;97.70
21115;DHT22;10715;48.546;9.896;2023-06-14T01:40:49;8.40;97.70
21115;DHT22;10715;48.546;9.896;2023-06-14T01:43:16;8.30;97.60
21115;DHT22;10715;48.546;9.896;2023-06-14T01:45:45;8.30;97.60
21115;DHT22;10715;48.546;9.896;2023-06-14T01:48:12;8.30;97.70
21115;DHT22;10715;48.546;9.896;2023-06-14T01:50:39;8.30;97.80
21115;DHT22;10715;48.546;9.896;2023-06-14T01:53:08;8.20;97.70
21115;DHT22;10715;48.546;9.896;2023-06-14T01:55:34;8.20;97.80
21115;DHT22;10715;48.546;9.896;2023-06-14T01:58:03;8.20;97.90
21115;DHT22;10715;48.546;9.896;2023-06-14T02:00:29;8.20;98.20
21115;DHT22;10715;48.546;9.896;2023-06-14T02:02:55;8.10;98.10
21115;DHT22;10715;48.546;9.896;2023-06-14T02:05:21;8.10;98.10
21115;DHT22;10715;48.546;9.896;2023-06-14T02:07:47;8.10;98.20
21115;DHT22;10715;48.546;9.896;2023-06-14T02:10:13;8.00;98.30
21115;DHT22;10715;48.546;9.896;2023-06-14T02:12:39;8.00;98.20
21115;DHT22;10715;48.546;9.896;2023-06-14T02:15:06;8.00;98.30
21115;DHT22;10715;48.546;9.896;2023-06-14T02:17:32;7.90;98.20
21115;DHT22;10715;48.546;9.896;2023-06-14T02:19:58;7.90;98.30
21115;DHT22;10715;48.546;9.896;2023-06-14T02:22:23;7.90;98.50
21115;DHT22;10715;48.546;9.896;2023-06-14T02:24:49;7.90;98.70
21115;DHT22;10715;48.546;9.896;2023-06-14T02:27:15;7.80;98.70
21115;DHT22;10715;48.546;9.896;2023-06-14T02:29:42;7.80;99.20
21115;DHT22;10715;48.546;9.896;2023-06-14T02:32:08;7.80;99.40
21115;DHT22;10715;48.546;9.896;2023-06-14T02:34:34;7.70;99.50
21115;DHT22;10715;48.546;9.896;2023-06-14T02:37:00;7.60;99.60
21115;DHT22;10715;48.546;9.896;2023-06-14T02:39:28;7.60;99.70
21115;DHT22;10715;48.546;9.896;2023-06-14T02:41:54;7.50;99.70
21115;DHT22;10715;48.546;9.896;2023-06-14T02:44:23;7.50;99.70
21115;DHT22;10715;48.546;9.896;2023-06-14T02:46:51;7.50;99.70
21115;DHT22;10715;48.546;9.896;2023-06-14T02:49:16;7.50;99.80
21115;DHT22;10715;48.546;9.896;2023-06-14T02:51:42;7.50;99.60
21115;DHT22;10715;48.546;9.896;2023-06-14T02:54:07;7.50;99.50
21115;DHT22;10715;48.546;9.896;2023-06-14T02:56:33;7.50;99.50
21115;DHT22;10715;48.546;9.896;2023-06-14T02:58:59;7.50;99.50
21115;DHT22;10715;48.546;9.896;2023-06-14T03:01:26;7.40;99.50
21115;DHT22;10715;48.546;9.896;2023-06-14T03:04:01;7.40;99.60
21115;DHT22;10715;48.546;9.896;2023-06-14T03:06:28;7.40;99.70
21115;DHT22;10715;48.546;9.896;2023-06-14T03:08:59;7.40;99.80
21115;DHT22;10715;48.546;9.896;2023-06-14T03:11:25;7.30;99.90
21115;DHT22;10715;48.546;9.896;2023-06-14T03:13:52;7.30;99.90
21115;DHT22;10715;48.546;9.896;2023-06-14T03:16:18;7.30;99.90
21115;DHT22;10715;48.546;9.896;2023-06-14T03:18:51;7.20;99.90
21115;DHT22;10715;48.546;9.896;2023-06-14T03:21:17;7.20;99.90
21115;DHT22;10715;48.546;9.896;2023-06-14T03:23:43;7.10;99.90
21115;DHT22;10715;48.546;9.896;2023-06-14T03:26:09;7.10;99.90
21115;DHT22;10715;48.546;9.896;2023-06-14T03:28:39;7.10;99.90
21115;DHT22;10715;48.546;9.896;2023-06-14T03:31:05;7.10;99.90
21115;DHT22;10715;48.546;9.896;2023-06-14T03:33:31;7.00;99.90
21115;DHT22;10715;48.546;9.896;2023-06-14T03:35:57;7.00;99.90
21115;DHT22;10715;48.546;9.896;2023-06-14T03:38:23;7.00;99.90
21115;DHT22;10715;48.546;9.896;2023-06-14T03:40:49;7.00;99.90
21115;DHT22;10715;48.546;9.896;2023-06-14T03:43:14;7.00;99.90
21115;DHT22;10715;48.546;9.896;2023-06-14T03:45:40;7.00;99.90
21115;DHT22;10715;48.546;9.896;2023-06-14T03:48:06;7.00;99.90
21115;DHT22;10715;48.546;9.896;2023-06-14T03:50:33;7.00;99.90
21115;DHT22;10715;48.546;9.896;2023-06-14T03:52:59;7.10;99.90
21115;DHT22;10715;48.546;9.896;2023-06-14T03:55:26;7.00;99.90
21115;DHT22;10715;48.546;9.896;2023-06-14T03:57:53;7.00;99.90
21115;DHT22;10715;48.546;9.896;2023-06-14T04:00:18;7.00;99.90
21115;DHT22;10715;48.546;9.896;2023-06-14T04:02:45;7.00;99.90
21115;DHT22;10715;48.546;9.896;2023-06-14T04:05:11;6.90;99.90
21115;DHT22;10715;48.546;9.896;2023-06-14T04:07:36;6.90;99.90
21115;DHT22;10715;48.546;9.896;2023-06-14T04:10:08;6.90;99.90
21115;DHT22;10715;48.546;9.896;2023-06-14T04:12:34;6.90;99.90
21115;DHT22;10715;48.546;9.896;2023-06-14T04:15:00;6.90;99.90
21115;DHT22;10715;48.546;9.896;2023-06-14T04:17:26;6.90;99.90
21115;DHT22;10715;48.546;9.896;2023-06-14T04:19:52;6.90;99.90
21115;DHT22;10715;48.546;9.896;2023-06-14T04:22:17;6.90;99.90
21115;DHT22;10715;48.546;9.896;2023-06-14T04:24:43;6.90;99.90
21115;DHT22;10715;48.546;9.896;2023-06-14T04:27:10;7.00;99.90
21115;DHT22;10715;48.546;9.896;2023-06-14T04:29:36;7.00;99.90
21115;DHT22;10715;48.546;9.896;2023-06-14T04:32:01;7.00;99.90
21115;DHT22;10715;48.546;9.896;2023-06-14T04:34:28;7.00;99.90
21115;DHT22;10715;48.546;9.896;2023-06-14T04:36:59;7.00;99.90
21115;DHT22;10715;48.546;9.896;2023-06-14T04:39:26;7.10;99.90
21115;DHT22;10715;48.546;9.896;2023-06-14T04:41:53;7.10;99.90
21115;DHT22;10715;48.546;9.896;2023-06-14T04:44:23;7.20;99.90
21115;DHT22;10715;48.546;9.896;2023-06-14T04:46:58;7.20;99.90
21115;DHT22;10715;48.546;9.896;2023-06-14T04:49:24;7.20;99.90
21115;DHT22;10715;48.546;9.896;2023-06-14T04:51:50;7.30;99.90
21115;DHT22;10715;48.546;9.896;2023-06-14T04:54:23;7.30;99.90
21115;DHT22;10715;48.546;9.896;2023-06-14T04:56:51;7.40;99.90
21115;DHT22;10715;48.546;9.896;2023-06-14T04:59:17;7.40;99.90
21115;DHT22;10715;48.546;9.896;2023-06-14T05:01:43;7.50;99.90
21115;DHT22;10715;48.546;9.896;2023-06-14T05:04:18;7.50;99.90
21115;DHT22;10715;48.546;9.896;2023-06-14T05:06:44;7.60;99.90
21115;DHT22;10715;48.546;9.896;2023-06-14T05:09:11;7.70;99.90
21115;DHT22;10715;48.546;9.896;2023-06-14T05:11:37;7.80;99.90
21115;DHT22;10715;48.546;9.896;2023-06-14T05:14:02;7.80;99.90
21115;DHT22;10715;48.546;9.896;2023-06-14T05:16:28;8.00;99.90
21115;DHT22;10715;48.546;9.896;2023-06-14T05:18:54;8.00;99.90
21115;DHT22;10715;48.546;9.896;2023-06-14T05:21:20;8.10;99.90
21115;DHT22;10715;48.546;9.896;2023-06-14T05:23:47;8.30;99.90
21115;DHT22;10715;48.546;9.896;2023-06-14T05:26:13;8.40;99.90
21115;DHT22;10715;48.546;9.896;2023-06-14T05:28:38;8.50;99.90
21115;DHT22;10715;48.546;9.896;2023-06-14T05:31:04;8.70;99.90
21115;DHT22;10715;48.546;9.896;2023-06-14T05:33:30;8.80;99.90
21115;DHT22;10715;48.546;9.896;2023-06-14T05:35:55;9.00;99.90
21115;DHT22;10715;48.546;9.896;2023-06-14T05:38:21;9.10;99.90
21115;DHT22;10715;48.546;9.896;2023-06-14T05:40:47;9.30;99.90
21115;DHT22;10715;48.546;9.896;2023-06-14T05:43:13;9.40;99.90
21115;DHT22;10715;48.546;9.896;2023-06-14T05:45:39;9.60;99.90
21115;DHT22;10715;48.546;9.896;2023-06-14T05:48:04;9.80;99.90
21115;DHT22;10715;48.546;9.896;2023-06-14T05:50:30;10.00;99.90
21115;DHT22;10715;48.546;9.896;2023-06-14T05:52:56;10.20;99.90
21115;DHT22;10715;48.546;9.896;2023-06-14T05:55:22;10.40;99.90
21115;DHT22;10715;48.546;9.896;2023-06-14T05:57:48;10.60;99.90
21115;DHT22;10715;48.546;9.896;2023-06-14T06:00:14;10.90;99.90
21115;DHT22;10715;48.546;9.896;2023-06-14T06:02:45;11.20;99.90
21115;DHT22;10715;48.546;9.896;2023-06-14T06:05:12;11.70;99.90
21115;DHT22;10715;48.546;9.896;2023-06-14T06:07:38;12.30;99.90
21115;DHT22;10715;48.546;9.896;2023-06-14T06:10:06;12.70;99.90
21115;DHT22;10715;48.546;9.896;2023-06-14T06:12:32;13.10;99.90
21115;DHT22;10715;48.546;9.896;2023-06-14T06:14:59;13.50;99.90
21115;DHT22;10715;48.546;9.896;2023-06-14T06:17:26;13.90;99.90
21115;DHT22;10715;48.546;9.896;2023-06-14T06:19:51;14.30;99.90
21115;DHT22;10715;48.546;9.896;2023-06-14T06:22:17;14.60;99.90
21115;DHT22;10715;48.546;9.896;2023-06-14T06:24:43;14.80;99.90
21115;DHT22;10715;48.546;9.896;2023-06-14T06:27:09;15.00;99.90
21115;DHT22;10715;48.546;9.896;2023-06-14T06:29:35;15.30;98.40
21115;DHT22;10715;48.546;9.896;2023-06-14T06:32:01;15.60;98.00
21115;DHT22;10715;48.546;9.896;2023-06-14T06:34:27;15.90;96.90
21115;DHT22;10715;48.546;9.896;2023-06-14T06:36:53;16.20;95.80
21115;DHT22;10715;48.546;9.896;2023-06-14T06:39:19;16.40;95.20
21115;DHT22;10715;48.546;9.896;2023-06-14T06:41:44;16.70;94.90
21115;DHT22;10715;48.546;9.896;2023-06-14T06:44:10;16.80;93.60
21115;DHT22;10715;48.546;9.896;2023-06-14T06:46:36;16.80;93.40
21115;DHT22;10715;48.546;9.896;2023-06-14T06:49:06;16.90;93.80
21115;DHT22;10715;48.546;9.896;2023-06-14T06:51:31;17.20;93.30
21115;DHT22;10715;48.546;9.896;2023-06-14T06:53:58;17.50;93.00
21115;DHT22;10715;48.546;9.896;2023-06-14T06:56:24;17.70;92.30
21115;DHT22;10715;48.546;9.896;2023-06-14T06:58:50;17.90;91.70
21115;DHT22;10715;48.546;9.896;2023-06-14T07:01:16;18.10;91.40
21115;DHT22;10715;48.546;9.896;2023-06-14T07:03:42;18.30;91.50
21115;DHT22;10715;48.546;9.896;2023-06-14T07:06:08;18.40;91.20
21115;DHT22;10715;48.546;9.896;2023-06-14T07:08:34;18.40;90.90
21115;DHT22;10715;48.546;9.896;2023-06-14T07:11:01;18.40;91.00
21115;DHT22;10715;48.546;9.896;2023-06-14T07:13:27;18.40;91.10
21115;DHT22;10715;48.546;9.896;2023-06-14T07:16:00;18.40;90.20
21115;DHT22;10715;48.546;9.896;2023-06-14T07:18:26;18.30;91.30
21115;DHT22;10715;48.546;9.896;2023-06-14T07:20:53;18.40;91.30
21115;DHT22;10715;48.546;9.896;2023-06-14T07:23:20;18.60;91.00
21115;DHT22;10715;48.546;9.896;2023-06-14T07:25:46;18.80;90.90
21115;DHT22;10715;48.546;9.896;2023-06-14T07:28:12;19.00;90.70
21115;DHT22;10715;48.546;9.896;2023-06-14T07:30:37;19.10;89.70
21115;DHT22;10715;48.546;9.896;2023-06-14T07:33:03;19.00;91.00
21115;DHT22;10715;48.546;9.896;2023-06-14T07:35:29;18.80;89.00
21115;DHT22;10715;48.546;9.896;2023-06-14T07:37:54;18.70;90.50
21115;DHT22;10715;48.546;9.896;2023-06-14T07:40:20;18.80;90.20
21115;DHT22;10715;48.546;9.896;2023-06-14T07:42:46;18.90;90.00
21115;DHT22;10715;48.546;9.896;2023-06-14T07:45:15;19.00;89.50
21115;DHT22;10715;48.546;9.896;2023-06-14T07:47:40;19.20;90.20
21115;DHT22;10715;48.546;9.896;2023-06-14T07:50:06;19.30;87.90
21115;DHT22;10715;48.546;9.896;2023-06-14T07:52:32;19.50;87.20
21115;DHT22;10715;48.546;9.896;2023-06-14T07:54:58;19.60;87.20
21115;DHT22;10715;48.546;9.896;2023-06-14T07:57:24;19.70;86.80
21115;DHT22;10715;48.546;9.896;2023-06-14T07:59:50;19.70;84.80
21115;DHT22;10715;48.546;9.896;2023-06-14T08:02:16;19.50;86.30
21115;DHT22;10715;48.546;9.896;2023-06-14T08:04:42;19.40;86.50
21115;DHT22;10715;48.546;9.896;2023-06-14T08:07:08;19.50;87.70
21115;DHT22;10715;48.546;9.896;2023-06-14T08:09:34;19.70;87.50
21115;DHT22;10715;48.546;9.896;2023-06-14T08:12:00;19.80;85.90
21115;DHT22;10715;48.546;9.896;2023-06-14T08:14:26;19.80;86.00
21115;DHT22;10715;48.546;9.896;2023-06-14T08:16:51;19.90;86.20
21115;DHT22;10715;48.546;9.896;2023-06-14T08:19:17;20.10;87.40
21115;DHT22;10715;48.546;9.896;2023-06-14T08:21:43;20.30;87.20
21115;DHT22;10715;48.546;9.896;2023-06-14T08:24:11;20.40;86.80
21115;DHT22;10715;48.546;9.896;2023-06-14T08:26:38;20.40;85.10
21115;DHT22;10715;48.546;9.896;2023-06-14T08:29:04;20.40;85.70
21115;DHT22;10715;48.546;9.896;2023-06-14T08:31:32;20.50;86.10
21115;DHT22;10715;48.546;9.896;2023-06-14T08:33:58;20.60;86.00
21115;DHT22;10715;48.546;9.896;2023-06-14T08:36:24;20.50;85.20
21115;DHT22;10715;48.546;9.896;2023-06-14T08:38:50;20.40;84.50
21115;DHT22;10715;48.546;9.896;2023-06-14T08:41:21;20.40;84.10
21115;DHT22;10715;48.546;9.896;2023-06-14T08:43:48;20.50;84.00
21115;DHT22;10715;48.546;9.896;2023-06-14T08:46:17;20.50;83.20
21115;DHT22;10715;48.546;9.896;2023-06-14T08:48:47;20.50;83.80
21115;DHT22;10715;48.546;9.896;2023-06-14T08:51:19;20.40;82.80
21115;DHT22;10715;48.546;9.896;2023-06-14T08:53:52;20.30;81.80
21115;DHT22;10715;48.546;9.896;2023-06-14T08:56:18;20.30;81.60
21115;DHT22;10715;48.546;9.896;2023-06-14T08:58:47;20.30;81.00
21115;DHT22;10715;48.546;9.896;2023-06-14T09:01:13;20.30;83.10
21115;DHT22;10715;48.546;9.896;2023-06-14T09:03:42;20.30;83.60
21115;DHT22;10715;48.546;9.896;2023-06-14T09:06:09;20.40;82.40
21115;DHT22;10715;48.546;9.896;2023-06-14T09:08:44;20.50;81.40
21115;DHT22;10715;48.546;9.896;2023-06-14T09:11:14;20.60;82.10
21115;DHT22;10715;48.546;9.896;2023-06-14T09:13:41;20.70;80.90
21115;DHT22;10715;48.546;9.896;2023-06-14T09:16:07;20.80;81.50
21115;DHT22;10715;48.546;9.896;2023-06-14T09:18:46;20.80;83.20
21115;DHT22;10715;48.546;9.896;2023-06-14T09:21:14;20.90;79.40
21115;DHT22;10715;48.546;9.896;2023-06-14T09:23:46;20.90;79.30
21115;DHT22;10715;48.546;9.896;2023-06-14T09:26:17;20.80;78.50
21115;DHT22;10715;48.546;9.896;2023-06-14T09:28:49;20.90;78.60
21115;DHT22;10715;48.546;9.896;2023-06-14T09:31:19;20.90;79.30
21115;DHT22;10715;48.546;9.896;2023-06-14T09:33:46;21.00;77.70
21115;DHT22;10715;48.546;9.896;2023-06-14T09:36:21;20.90;76.60
21115;DHT22;10715;48.546;9.896;2023-06-14T09:38:58;20.80;74.80
21115;DHT22;10715;48.546;9.896;2023-06-14T09:41:38;20.70;75.00
21115;DHT22;10715;48.546;9.896;2023-06-14T09:44:06;20.80;78.30
21115;DHT22;10715;48.546;9.896;2023-06-14T09:46:33;20.70;76.30
21115;DHT22;10715;48.546;9.896;2023-06-14T09:48:59;20.70;77.50
21115;DHT22;10715;48.546;9.896;2023-06-14T09:51:26;20.80;78.00
21115;DHT22;10715;48.546;9.896;2023-06-14T09:53:53;20.90;78.50
21115;DHT22;10715;48.546;9.896;2023-06-14T09:56:47;21.00;77.00
21115;DHT22;10715;48.546;9.896;2023-06-14T09:59:13;21.10;77.40
21115;DHT22;10715;48.546;9.896;2023-06-14T10:01:44;21.20;76.20
21115;DHT22;10715;48.546;9.896;2023-06-14T10:04:10;21.30;76.70
21115;DHT22;10715;48.546;9.896;2023-06-14T10:06:43;21.30;76.00
21115;DHT22;10715;48.546;9.896;2023-06-14T10:09:11;21.30;74.60
21115;DHT22;10715;48.546;9.896;2023-06-14T10:11:37;21.20;75.30
21115;DHT22;10715;48.546;9.896;2023-06-14T10:14:09;21.10;76.80
21115;DHT22;10715;48.546;9.896;2023-06-14T10:16:49;21.20;76.20
21115;DHT22;10715;48.546;9.896;2023-06-14T10:19:29;21.20;76.50
21115;DHT22;10715;48.546;9.896;2023-06-14T10:22:23;21.30;77.10
21115;DHT22;10715;48.546;9.896;2023-06-14T10:24:51;21.50;75.70
21115;DHT22;10715;48.546;9.896;2023-06-14T10:27:17;21.70;74.70
21115;DHT22;10715;48.546;9.896;2023-06-14T10:32:23;21.80;73.70
21115;DHT22;10715;48.546;9.896;2023-06-14T10:35:01;21.80;75.40
21115;DHT22;10715;48.546;9.896;2023-06-14T10:37:27;21.70;73.40
21115;DHT22;10715;48.546;9.896;2023-06-14T10:39:53;21.60;73.50
21115;DHT22;10715;48.546;9.896;2023-06-14T10:42:19;21.50;73.00
21115;DHT22;10715;48.546;9.896;2023-06-14T10:44:51;21.50;74.00
21115;DHT22;10715;48.546;9.896;2023-06-14T10:47:30;21.50;74.40
21115;DHT22;10715;48.546;9.896;2023-06-14T10:50:04;21.50;73.70
21115;DHT22;10715;48.546;9.896;2023-06-14T10:52:34;21.50;72.90
21115;DHT22;10715;48.546;9.896;2023-06-14T10:57:40;21.40;75.60
21115;DHT22;10715;48.546;9.896;2023-06-14T11:00:08;21.30;75.90
21115;DHT22;10715;48.546;9.896;2023-06-14T11:05:54;21.20;75.10
21115;DHT22;10715;48.546;9.896;2023-06-14T11:08:27;21.10;74.60
21115;DHT22;10715;48.546;9.896;2023-06-14T11:11:06;21.10;75.30
21115;DHT22;10715;48.546;9.896;2023-06-14T11:13:32;21.10;76.20
21115;DHT22;10715;48.546;9.896;2023-06-14T11:15:59;21.00;75.80
21115;DHT22;10715;48.546;9.896;2023-06-14T11:18:25;21.00;74.80
21115;DHT22;10715;48.546;9.896;2023-06-14T11:20:53;21.00;75.40
21115;DHT22;10715;48.546;9.896;2023-06-14T11:23:21;21.10;76.80
21115;DHT22;10715;48.546;9.896;2023-06-14T11:25:53;21.10;75.40
21115;DHT22;10715;48.546;9.896;2023-06-14T11:28:19;21.20;75.70
21115;DHT22;10715;48.546;9.896;2023-06-14T11:30:59;21.30;75.50
21115;DHT22;10715;48.546;9.896;2023-06-14T11:33:25;21.30;75.40
21115;DHT22;10715;48.546;9.896;2023-06-14T11:35:51;21.30;74.70
21115;DHT22;10715;48.546;9.896;2023-06-14T11:38:17;21.30;75.00
21115;DHT22;10715;48.546;9.896;2023-06-14T11:40:43;21.40;74.50
21115;DHT22;10715;48.546;9.896;2023-06-14T11:43:09;21.40;74.00
21115;DHT22;10715;48.546;9.896;2023-06-14T11:45:35;21.50;74.60
21115;DHT22;10715;48.546;9.896;2023-06-14T11:48:01;21.70;73.70
21115;DHT22;10715;48.546;9.896;2023-06-14T11:50:27;21.70;73.60
21115;DHT22;10715;48.546;9.896;2023-06-14T11:52:57;21.80;73.90
21115;DHT22;10715;48.546;9.896;2023-06-14T11:55:26;21.80;72.80
21115;DHT22;10715;48.546;9.896;2023-06-14T11:57:53;21.90;72.60
21115;DHT22;10715;48.546;9.896;2023-06-14T12:00:25;21.90;72.50
21115;DHT22;10715;48.546;9.896;2023-06-14T12:02:54;22.00;70.70
21115;DHT22;10715;48.546;9.896;2023-06-14T12:05:21;21.90;70.90
21115;DHT22;10715;48.546;9.896;2023-06-14T12:07:47;21.90;70.60
21115;DHT22;10715;48.546;9.896;2023-06-14T12:10:14;21.90;72.70
21115;DHT22;10715;48.546;9.896;2023-06-14T12:12:40;21.90;72.50
21115;DHT22;10715;48.546;9.896;2023-06-14T12:15:08;22.00;73.70
21115;DHT22;10715;48.546;9.896;2023-06-14T12:17:35;22.00;73.20
21115;DHT22;10715;48.546;9.896;2023-06-14T12:20:12;22.00;72.80
21115;DHT22;10715;48.546;9.896;2023-06-14T12:22:56;22.00;73.00
21115;DHT22;10715;48.546;9.896;2023-06-14T12:27:55;22.00;72.10
21115;DHT22;10715;48.546;9.896;2023-06-14T12:30:21;22.00;72.30
21115;DHT22;10715;48.546;9.896;2023-06-14T12:32:47;22.00;71.90
21115;DHT22;10715;48.546;9.896;2023-06-14T12:35:14;22.00;70.90
21115;DHT22;10715;48.546;9.896;2023-06-14T12:37:40;22.00;71.70
21115;DHT22;10715;48.546;9.896;2023-06-14T12:40:07;22.00;71.30
21115;DHT22;10715;48.546;9.896;2023-06-14T12:42:33;22.10;70.80
21115;DHT22;10715;48.546;9.896;2023-06-14T12:45:02;22.10;69.60
21115;DHT22;10715;48.546;9.896;2023-06-14T12:47:28;22.00;69.40
21115;DHT22;10715;48.546;9.896;2023-06-14T12:49:54;22.00;67.60
21115;DHT22;10715;48.546;9.896;2023-06-14T12:52:19;22.00;69.70
21115;DHT22;10715;48.546;9.896;2023-06-14T12:54:45;22.00;70.30
21115;DHT22;10715;48.546;9.896;2023-06-14T12:57:11;21.90;70.20
21115;DHT22;10715;48.546;9.896;2023-06-14T12:59:36;22.00;68.60
21115;DHT22;10715;48.546;9.896;2023-06-14T13:02:13;21.90;68.70
21115;DHT22;10715;48.546;9.896;2023-06-14T13:04:38;21.90;70.40
21115;DHT22;10715;48.546;9.896;2023-06-14T13:07:05;22.00;70.10
21115;DHT22;10715;48.546;9.896;2023-06-14T13:09:31;22.00;71.50
21115;DHT22;10715;48.546;9.896;2023-06-14T13:11:56;22.00;70.40
21115;DHT22;10715;48.546;9.896;2023-06-14T13:14:22;22.00;70.60
21115;DHT22;10715;48.546;9.896;2023-06-14T13:16:48;22.00;71.70
21115;DHT22;10715;48.546;9.896;2023-06-14T13:19:13;22.10;71.30
21115;DHT22;10715;48.546;9.896;2023-06-14T13:21:39;22.10;71.20
21115;DHT22;10715;48.546;9.896;2023-06-14T13:24:05;22.20;71.30
21115;DHT22;10715;48.546;9.896;2023-06-14T13:26:33;22.20;71.70
21115;DHT22;10715;48.546;9.896;2023-06-14T13:28:59;22.20;72.20
21115;DHT22;10715;48.546;9.896;2023-06-14T13:31:25;22.20;70.70
21115;DHT22;10715;48.546;9.896;2023-06-14T13:33:50;22.20;71.20
21115;DHT22;10715;48.546;9.896;2023-06-14T13:36:16;22.30;70.40
21115;DHT22;10715;48.546;9.896;2023-06-14T13:38:42;22.30;70.70
21115;DHT22;10715;48.546;9.896;2023-06-14T13:41:08;22.30;71.50
21115;DHT22;10715;48.546;9.896;2023-06-14T13:43:33;22.30;70.40
21115;DHT22;10715;48.546;9.896;2023-06-14T13:45:59;22.30;68.20
21115;DHT22;10715;48.546;9.896;2023-06-14T13:48:25;22.30;70.80
21115;DHT22;10715;48.546;9.896;2023-06-14T13:50:50;22.40;70.20
21115;DHT22;10715;48.546;9.896;2023-06-14T13:53:16;22.40;69.70
21115;DHT22;10715;48.546;9.896;2023-06-14T13:55:42;22.40;70.40
21115;DHT22;10715;48.546;9.896;2023-06-14T13:58:08;22.50;70.20
21115;DHT22;10715;48.546;9.896;2023-06-14T14:00:33;22.50;70.20
21115;DHT22;10715;48.546;9.896;2023-06-14T14:02:59;22.60;68.50
21115;DHT22;10715;48.546;9.896;2023-06-14T14:05:25;22.60;68.70
21115;DHT22;10715;48.546;9.896;2023-06-14T14:07:55;22.60;68.60
21115;DHT22;10715;48.546;9.896;2023-06-14T14:10:23;22.60;70.10
21115;DHT22;10715;48.546;9.896;2023-06-14T14:12:50;22.60;68.70
21115;DHT22;10715;48.546;9.896;2023-06-14T14:15:16;22.50;67.70
21115;DHT22;10715;48.546;9.896;2023-06-14T14:17:42;22.50;67.90
21115;DHT22;10715;48.546;9.896;2023-06-14T14:20:08;22.40;69.20
21115;DHT22;10715;48.546;9.896;2023-06-14T14:22:35;22.40;67.90
21115;DHT22;10715;48.546;9.896;2023-06-14T14:25:00;22.40;68.10
21115;DHT22;10715;48.546;9.896;2023-06-14T14:27:26;22.40;66.10
21115;DHT22;10715;48.546;9.896;2023-06-14T14:29:52;22.40;67.30
21115;DHT22;10715;48.546;9.896;2023-06-14T14:32:17;22.40;68.40
21115;DHT22;10715;48.546;9.896;2023-06-14T14:34:43;22.40;67.30
21115;DHT22;10715;48.546;9.896;2023-06-14T14:37:09;22.50;70.60
21115;DHT22;10715;48.546;9.896;2023-06-14T14:39:36;22.50;67.80
21115;DHT22;10715;48.546;9.896;2023-06-14T14:42:02;22.60;68.90
21115;DHT22;10715;48.546;9.896;2023-06-14T14:44:28;22.70;69.20
21115;DHT22;10715;48.546;9.896;2023-06-14T14:46:53;22.60;70.00
21115;DHT22;10715;48.546;9.896;2023-06-14T14:49:19;22.60;68.70
21115;DHT22;10715;48.546;9.896;2023-06-14T14:51:45;22.60;68.90
21115;DHT22;10715;48.546;9.896;2023-06-14T14:54:11;22.50;69.50
21115;DHT22;10715;48.546;9.896;2023-06-14T14:56:37;22.40;70.60
21115;DHT22;10715;48.546;9.896;2023-06-14T14:59:03;22.40;70.60
21115;DHT22;10715;48.546;9.896;2023-06-14T15:01:29;22.40;71.00
21115;DHT22;10715;48.546;9.896;2023-06-14T15:03:55;22.40;69.70
21115;DHT22;10715;48.546;9.896;2023-06-14T15:06:21;22.40;71.50
21115;DHT22;10715;48.546;9.896;2023-06-14T15:08:46;22.50;70.00
21115;DHT22;10715;48.546;9.896;2023-06-14T15:11:12;22.50;71.00
21115;DHT22;10715;48.546;9.896;2023-06-14T15:13:38;22.60;71.00
21115;DHT22;10715;48.546;9.896;2023-06-14T15:16:04;22.60;70.60
21115;DHT22;10715;48.546;9.896;2023-06-14T15:18:29;22.60;68.70
21115;DHT22;10715;48.546;9.896;2023-06-14T15:20:55;22.50;68.70
21115;DHT22;10715;48.546;9.896;2023-06-14T15:23:21;22.40;68.90
21115;DHT22;10715;48.546;9.896;2023-06-14T15:25:47;22.30;69.30
21115;DHT22;10715;48.546;9.896;2023-06-14T15:28:13;22.30;70.20
21115;DHT22;10715;48.546;9.896;2023-06-14T15:30:39;22.30;70.00
21115;DHT22;10715;48.546;9.896;2023-06-14T15:33:05;22.20;69.00
21115;DHT22;10715;48.546;9.896;2023-06-14T15:35:31;22.20;68.90
21115;DHT22;10715;48.546;9.896;2023-06-14T15:37:56;22.10;70.20
21115;DHT22;10715;48.546;9.896;2023-06-14T15:40:22;22.10;70.90
21115;DHT22;10715;48.546;9.896;2023-06-14T15:42:48;22.20;70.10
21115;DHT22;10715;48.546;9.896;2023-06-14T15:45:14;22.10;69.90
21115;DHT22;10715;48.546;9.896;2023-06-14T15:47:39;22.20;70.30
21115;DHT22;10715;48.546;9.896;2023-06-14T15:50:06;22.20;70.40
21115;DHT22;10715;48.546;9.896;2023-06-14T15:52:35;22.20;70.10